sensor_id;sensor_type;location;lat;lon;timestamp;temperature;humidity
44271;DHT22;29963;44.594;11.368;2024-03-17T00:02:13;13.90;99.90
44271;DHT22;29963;44.594;11.368;2024-03-17T00:04:38;13.90;99.90
44271;DHT22;29963;44.594;11.368;2024-03-17T00:07:04;13.80;99.90
44271;DHT22;29963;44.594;11.368;2024-03-17T00:09:30;13.90;99.90
44271;DHT22;29963;44.594;11.368;2024-03-17T00:11:55;14.10;99.90
44271;DHT22;29963;44.594;11.368;2024-03-17T00:14:21;13.90;99.90
44271;DHT22;29963;44.594;11.368;2024-03-17T00:16:47;13.80;99.90
44271;DHT22;29963;44.594;11.368;2024-03-17T00:19:14;13.60;99.90
44271;DHT22;29963;44.594;11.368;2024-03-17T00:21:40;13.50;99.90
44271;DHT22;29963;44.594;11.368;2024-03-17T00:24:05;13.30;99.90
44271;DHT22;29963;44.594;11.368;2024-03-17T00:26:32;13.20;99.90
44271;DHT22;29963;44.594;11.368;2024-03-17T00:28:59;13.10;99.90
44271;DHT22;29963;44.594;11.368;2024-03-17T00:31:25;13.10;99.90
44271;DHT22;29963;44.594;11.368;2024-03-17T00:33:54;13.20;99.90
44271;DHT22;29963;44.594;11.368;2024-03-17T00:36:20;13.20;99.90
44271;DHT22;29963;44.594;11.368;2024-03-17T00:38:45;13.30;99.90
44271;DHT22;29963;44.594;11.368;2024-03-17T00:41:11;13.40;99.90
44271;DHT22;29963;44.594;11.368;2024-03-17T00:43:37;13.40;99.90
44271;DHT22;29963;44.594;11.368;2024-03-17T00:46:03;13.50;99.90
44271;DHT22;29963;44.594;11.368;2024-03-17T00:48:29;13.60;99.90
44271;DHT22;29963;44.594;11.368;2024-03-17T00:50:58;13.50;99.90
44271;DHT22;29963;44.594;11.368;2024-03-17T00:53:25;13.40;99.90
44271;DHT22;29963;44.594;11.368;2024-03-17T00:55:52;13.50;99.90
44271;DHT22;29963;44.594;11.368;2024-03-17T00:58:21;13.60;99.90
44271;DHT22;29963;44.594;11.368;2024-03-17T01:00:47;13.50;99.90
44271;DHT22;29963;44.594;11.368;2024-03-17T01:03:16;13.50;99.90
44271;DHT22;29963;44.594;11.368;2024-03-17T01:05:42;13.30;99.90
44271;DHT22;29963;44.594;11.368;2024-03-17T01:08:12;13.20;99.90
44271;DHT22;29963;44.594;11.368;2024-03-17T01:10:41;13.30;99.90
44271;DHT22;29963;44.594;11.368;2024-03-17T01:13:08;13.40;99.90
44271;DHT22;29963;44.594;11.368;2024-03-17T01:15:36;13.50;99.90
44271;DHT22;29963;44.594;11.368;2024-03-17T01:18:05;13.60;99.90
44271;DHT22;29963;44.594;11.368;2024-03-17T01:20:32;13.60;99.90
44271;DHT22;29963;44.594;11.368;2024-03-17T01:22:58;13.70;99.90
44271;DHT22;29963;44.594;11.368;2024-03-17T01:25:24;13.70;99.90
44271;DHT22;29963;44.594;11.368;2024-03-17T01:27:53;13.80;99.90
44271;DHT22;29963;44.594;11.368;2024-03-17T01:30:19;13.80;99.90
44271;DHT22;29963;44.594;11.368;2024-03-17T01:32:45;13.80;99.90
44271;DHT22;29963;44.594;11.368;2024-03-17T01:35:11;13.80;99.90
44271;DHT22;29963;44.594;11.368;2024-03-17T01:37:37;13.80;99.90
44271;DHT22;29963;44.594;11.368;2024-03-17T01:40:03;13.90;99.90
44271;DHT22;29963;44.594;11.368;2024-03-17T01:42:39;13.90;99.90
44271;DHT22;29963;44.594;11.368;2024-03-17T01:47:42;13.60;99.90
44271;DHT22;29963;44.594;11.368;2024-03-17T01:50:09;13.50;99.90
44271;DHT22;29963;44.594;11.368;2024-03-17T01:52:36;13.40;99.90
44271;DHT22;29963;44.594;11.368;2024-03-17T01:55:05;13.30;99.90
44271;DHT22;29963;44.594;11.368;2024-03-17T01:57:32;13.10;99.90
44271;DHT22;29963;44.594;11.368;2024-03-17T01:59:59;13.00;99.90
44271;DHT22;29963;44.594;11.368;2024-03-17T02:02:25;13.10;99.90
44271;DHT22;29963;44.594;11.368;2024-03-17T02:04:51;13.10;99.90
44271;DHT22;29963;44.594;11.368;2024-03-17T02:07:16;13.20;99.90
44271;DHT22;29963;44.594;11.368;2024-03-17T02:09:42;13.20;99.90
44271;DHT22;29963;44.594;11.368;2024-03-17T02:12:09;13.30;99.90
44271;DHT22;29963;44.594;11.368;2024-03-17T02:14:35;13.20;99.90
44271;DHT22;29963;44.594;11.368;2024-03-17T02:17:01;13.20;99.90
44271;DHT22;29963;44.594;11.368;2024-03-17T02:19:26;13.10;99.90
44271;DHT22;29963;44.594;11.368;2024-03-17T02:21:52;12.70;99.90
44271;DHT22;29963;44.594;11.368;2024-03-17T02:24:17;12.60;99.90
44271;DHT22;29963;44.594;11.368;2024-03-17T02:26:43;12.60;99.90
44271;DHT22;29963;44.594;11.368;2024-03-17T02:29:09;12.50;99.90
44271;DHT22;29963;44.594;11.368;2024-03-17T02:31:35;12.50;99.90
44271;DHT22;29963;44.594;11.368;2024-03-17T02:34:00;12.40;99.90
44271;DHT22;29963;44.594;11.368;2024-03-17T02:36:26;12.30;99.90
44271;DHT22;29963;44.594;11.368;2024-03-17T02:38:52;12.20;99.90
44271;DHT22;29963;44.594;11.368;2024-03-17T02:41:36;12.20;99.90
44271;DHT22;29963;44.594;11.368;2024-03-17T02:44:01;12.20;99.90
44271;DHT22;29963;44.594;11.368;2024-03-17T02:46:27;12.10;99.90
44271;DHT22;29963;44.594;11.368;2024-03-17T02:48:53;12.10;99.90
44271;DHT22;29963;44.594;11.368;2024-03-17T02:51:21;12.10;99.90
44271;DHT22;29963;44.594;11.368;2024-03-17T02:53:48;12.30;99.90
44271;DHT22;29963;44.594;11.368;2024-03-17T02:56:15;12.40;99.90
44271;DHT22;29963;44.594;11.368;2024-03-17T02:58:42;12.50;99.90
44271;DHT22;29963;44.594;11.368;2024-03-17T03:01:08;12.70;99.90
44271;DHT22;29963;44.594;11.368;2024-03-17T03:03:37;12.80;99.90
44271;DHT22;29963;44.594;11.368;2024-03-17T03:06:03;12.90;99.90
44271;DHT22;29963;44.594;11.368;2024-03-17T03:08:37;13.00;99.90
44271;DHT22;29963;44.594;11.368;2024-03-17T03:11:10;13.00;99.90
44271;DHT22;29963;44.594;11.368;2024-03-17T03:13:39;13.10;99.90
44271;DHT22;29963;44.594;11.368;2024-03-17T03:16:10;13.00;99.90
44271;DHT22;29963;44.594;11.368;2024-03-17T03:18:36;12.90;99.90
44271;DHT22;29963;44.594;11.368;2024-03-17T03:21:02;12.90;99.90
44271;DHT22;29963;44.594;11.368;2024-03-17T03:23:28;12.80;99.90
44271;DHT22;29963;44.594;11.368;2024-03-17T03:26:01;12.50;99.90
44271;DHT22;29963;44.594;11.368;2024-03-17T03:28:32;12.40;99.90
44271;DHT22;29963;44.594;11.368;2024-03-17T03:30:59;12.40;99.90
44271;DHT22;29963;44.594;11.368;2024-03-17T03:33:24;12.30;99.90
44271;DHT22;29963;44.594;11.368;2024-03-17T03:35:50;12.40;99.90
44271;DHT22;29963;44.594;11.368;2024-03-17T03:38:16;12.50;99.90
44271;DHT22;29963;44.594;11.368;2024-03-17T03:40:42;12.50;99.90
44271;DHT22;29963;44.594;11.368;2024-03-17T03:43:11;12.50;99.90
44271;DHT22;29963;44.594;11.368;2024-03-17T03:45:39;12.40;99.90
44271;DHT22;29963;44.594;11.368;2024-03-17T03:48:06;12.50;99.90
44271;DHT22;29963;44.594;11.368;2024-03-17T03:50:31;12.60;99.90
44271;DHT22;29963;44.594;11.368;2024-03-17T03:52:58;12.60;99.90
44271;DHT22;29963;44.594;11.368;2024-03-17T03:55:24;12.70;99.90
44271;DHT22;29963;44.594;11.368;2024-03-17T03:57:50;12.70;99.90
44271;DHT22;29963;44.594;11.368;2024-03-17T04:00:21;12.70;99.90
44271;DHT22;29963;44.594;11.368;2024-03-17T04:02:51;12.80;99.90
44271;DHT22;29963;44.594;11.368;2024-03-17T04:05:17;12.80;99.90
44271;DHT22;29963;44.594;11.368;2024-03-17T04:07:43;12.80;99.90
44271;DHT22;29963;44.594;11.368;2024-03-17T04:10:12;12.80;99.90
44271;DHT22;29963;44.594;11.368;2024-03-17T04:12:38;12.80;99.90
44271;DHT22;29963;44.594;11.368;2024-03-17T04:15:04;12.90;99.90
44271;DHT22;29963;44.594;11.368;2024-03-17T04:17:31;12.90;99.90
44271;DHT22;29963;44.594;11.368;2024-03-17T04:19:58;12.80;99.90
44271;DHT22;29963;44.594;11.368;2024-03-17T04:22:24;12.80;99.90
44271;DHT22;29963;44.594;11.368;2024-03-17T04:24:50;12.80;99.90
44271;DHT22;29963;44.594;11.368;2024-03-17T04:27:25;12.80;99.90
44271;DHT22;29963;44.594;11.368;2024-03-17T04:29:56;12.80;99.90
44271;DHT22;29963;44.594;11.368;2024-03-17T04:32:22;12.80;99.90
44271;DHT22;29963;44.594;11.368;2024-03-17T04:34:48;12.70;99.90
44271;DHT22;29963;44.594;11.368;2024-03-17T04:37:14;12.80;99.90
44271;DHT22;29963;44.594;11.368;2024-03-17T04:39:40;12.70;99.90
44271;DHT22;29963;44.594;11.368;2024-03-17T04:42:09;12.70;99.90
44271;DHT22;29963;44.594;11.368;2024-03-17T04:44:34;12.70;99.90
44271;DHT22;29963;44.594;11.368;2024-03-17T04:47:00;12.70;99.90
44271;DHT22;29963;44.594;11.368;2024-03-17T04:49:26;12.60;99.90
44271;DHT22;29963;44.594;11.368;2024-03-17T04:51:52;12.70;99.90
44271;DHT22;29963;44.594;11.368;2024-03-17T04:54:17;12.70;99.90
44271;DHT22;29963;44.594;11.368;2024-03-17T04:56:43;12.80;99.90
44271;DHT22;29963;44.594;11.368;2024-03-17T04:59:09;12.70;99.90
44271;DHT22;29963;44.594;11.368;2024-03-17T05:01:34;12.60;99.90
44271;DHT22;29963;44.594;11.368;2024-03-17T05:04:03;12.40;99.90
44271;DHT22;29963;44.594;11.368;2024-03-17T05:06:29;12.30;99.90
44271;DHT22;29963;44.594;11.368;2024-03-17T05:08:55;12.30;99.90
44271;DHT22;29963;44.594;11.368;2024-03-17T05:11:21;12.40;99.90
44271;DHT22;29963;44.594;11.368;2024-03-17T05:13:46;12.40;99.90
44271;DHT22;29963;44.594;11.368;2024-03-17T05:16:12;12.40;99.90
44271;DHT22;29963;44.594;11.368;2024-03-17T05:18:37;12.50;99.90
44271;DHT22;29963;44.594;11.368;2024-03-17T05:21:07;12.40;99.90
44271;DHT22;29963;44.594;11.368;2024-03-17T05:23:35;12.40;99.90
44271;DHT22;29963;44.594;11.368;2024-03-17T05:26:01;12.40;99.90
44271;DHT22;29963;44.594;11.368;2024-03-17T05:28:28;12.40;99.90
44271;DHT22;29963;44.594;11.368;2024-03-17T05:30:55;12.40;99.90
44271;DHT22;29963;44.594;11.368;2024-03-17T05:33:22;12.50;99.90
44271;DHT22;29963;44.594;11.368;2024-03-17T05:35:49;12.40;99.90
44271;DHT22;29963;44.594;11.368;2024-03-17T05:38:18;12.40;99.90
44271;DHT22;29963;44.594;11.368;2024-03-17T05:40:52;12.30;99.90
44271;DHT22;29963;44.594;11.368;2024-03-17T05:43:19;12.30;99.90
44271;DHT22;29963;44.594;11.368;2024-03-17T05:45:44;12.30;99.90
44271;DHT22;29963;44.594;11.368;2024-03-17T05:48:10;12.30;99.90
44271;DHT22;29963;44.594;11.368;2024-03-17T05:50:35;12.30;99.90
44271;DHT22;29963;44.594;11.368;2024-03-17T05:53:01;12.40;99.90
44271;DHT22;29963;44.594;11.368;2024-03-17T05:55:28;12.40;99.90
44271;DHT22;29963;44.594;11.368;2024-03-17T05:57:54;12.40;99.90
44271;DHT22;29963;44.594;11.368;2024-03-17T06:00:19;12.50;99.90
44271;DHT22;29963;44.594;11.368;2024-03-17T06:02:46;12.50;99.90
44271;DHT22;29963;44.594;11.368;2024-03-17T06:05:12;12.60;99.90
44271;DHT22;29963;44.594;11.368;2024-03-17T06:07:39;12.60;99.90
44271;DHT22;29963;44.594;11.368;2024-03-17T06:10:06;12.70;99.90
44271;DHT22;29963;44.594;11.368;2024-03-17T06:12:32;12.80;99.90
44271;DHT22;29963;44.594;11.368;2024-03-17T06:14:57;12.70;99.90
44271;DHT22;29963;44.594;11.368;2024-03-17T06:17:23;12.80;99.90
44271;DHT22;29963;44.594;11.368;2024-03-17T06:19:49;12.70;99.90
44271;DHT22;29963;44.594;11.368;2024-03-17T06:22:14;12.80;99.90
44271;DHT22;29963;44.594;11.368;2024-03-17T06:24:40;12.80;99.90
44271;DHT22;29963;44.594;11.368;2024-03-17T06:27:06;12.80;99.90
44271;DHT22;29963;44.594;11.368;2024-03-17T06:29:35;12.90;99.90
44271;DHT22;29963;44.594;11.368;2024-03-17T06:32:00;12.90;99.90
44271;DHT22;29963;44.594;11.368;2024-03-17T06:34:26;12.80;99.90
44271;DHT22;29963;44.594;11.368;2024-03-17T06:36:51;12.80;99.90
44271;DHT22;29963;44.594;11.368;2024-03-17T06:39:17;12.90;99.90
44271;DHT22;29963;44.594;11.368;2024-03-17T06:41:45;12.90;99.90
44271;DHT22;29963;44.594;11.368;2024-03-17T06:44:10;12.80;99.90
44271;DHT22;29963;44.594;11.368;2024-03-17T06:46:36;12.80;99.90
44271;DHT22;29963;44.594;11.368;2024-03-17T06:49:02;12.80;99.90
44271;DHT22;29963;44.594;11.368;2024-03-17T06:51:27;12.90;99.90
44271;DHT22;29963;44.594;11.368;2024-03-17T06:53:53;12.80;99.90
44271;DHT22;29963;44.594;11.368;2024-03-17T06:56:18;12.90;99.90
44271;DHT22;29963;44.594;11.368;2024-03-17T06:58:44;13.00;99.90
44271;DHT22;29963;44.594;11.368;2024-03-17T07:01:09;13.00;99.90
44271;DHT22;29963;44.594;11.368;2024-03-17T07:03:35;13.10;99.90
44271;DHT22;29963;44.594;11.368;2024-03-17T07:06:02;13.10;99.90
44271;DHT22;29963;44.594;11.368;2024-03-17T07:08:29;13.20;99.90
44271;DHT22;29963;44.594;11.368;2024-03-17T07:13:24;13.10;99.90
44271;DHT22;29963;44.594;11.368;2024-03-17T07:15:50;13.20;99.90
44271;DHT22;29963;44.594;11.368;2024-03-17T07:18:16;13.30;99.90
44271;DHT22;29963;44.594;11.368;2024-03-17T07:20:42;13.30;99.90
44271;DHT22;29963;44.594;11.368;2024-03-17T07:23:08;13.40;99.90
44271;DHT22;29963;44.594;11.368;2024-03-17T07:25:33;13.50;99.90
44271;DHT22;29963;44.594;11.368;2024-03-17T07:27:59;13.50;99.90
44271;DHT22;29963;44.594;11.368;2024-03-17T07:30:24;13.50;99.90
44271;DHT22;29963;44.594;11.368;2024-03-17T07:32:50;13.70;99.90
44271;DHT22;29963;44.594;11.368;2024-03-17T07:35:16;13.80;99.90
44271;DHT22;29963;44.594;11.368;2024-03-17T07:37:41;13.80;99.90
44271;DHT22;29963;44.594;11.368;2024-03-17T07:40:07;13.80;99.90
44271;DHT22;29963;44.594;11.368;2024-03-17T07:42:36;13.80;99.90
44271;DHT22;29963;44.594;11.368;2024-03-17T07:45:02;13.80;99.90
44271;DHT22;29963;44.594;11.368;2024-03-17T07:47:27;13.90;99.90
44271;DHT22;29963;44.594;11.368;2024-03-17T07:50:03;14.00;99.90
44271;DHT22;29963;44.594;11.368;2024-03-17T07:52:31;14.00;99.90
44271;DHT22;29963;44.594;11.368;2024-03-17T07:54:57;14.10;99.90
44271;DHT22;29963;44.594;11.368;2024-03-17T07:57:23;14.20;99.90
44271;DHT22;29963;44.594;11.368;2024-03-17T07:59:51;14.20;99.90
44271;DHT22;29963;44.594;11.368;2024-03-17T08:02:17;14.30;99.90
44271;DHT22;29963;44.594;11.368;2024-03-17T08:04:43;14.40;99.90
44271;DHT22;29963;44.594;11.368;2024-03-17T08:07:10;14.50;99.90
44271;DHT22;29963;44.594;11.368;2024-03-17T08:09:36;14.50;99.90
44271;DHT22;29963;44.594;11.368;2024-03-17T08:12:02;14.70;99.90
44271;DHT22;29963;44.594;11.368;2024-03-17T08:14:30;14.80;99.90
44271;DHT22;29963;44.594;11.368;2024-03-17T08:16:55;14.90;99.90
44271;DHT22;29963;44.594;11.368;2024-03-17T08:19:21;15.00;99.90
44271;DHT22;29963;44.594;11.368;2024-03-17T08:21:47;15.10;99.90
44271;DHT22;29963;44.594;11.368;2024-03-17T08:24:12;15.10;99.90
44271;DHT22;29963;44.594;11.368;2024-03-17T08:26:38;15.20;99.90
44271;DHT22;29963;44.594;11.368;2024-03-17T08:29:06;15.40;99.90
44271;DHT22;29963;44.594;11.368;2024-03-17T08:31:32;15.50;99.90
44271;DHT22;29963;44.594;11.368;2024-03-17T08:33:57;15.70;99.90
44271;DHT22;29963;44.594;11.368;2024-03-17T08:36:23;15.80;99.90
44271;DHT22;29963;44.594;11.368;2024-03-17T08:38:50;15.90;99.90
44271;DHT22;29963;44.594;11.368;2024-03-17T08:41:16;16.10;99.90
44271;DHT22;29963;44.594;11.368;2024-03-17T08:43:42;16.20;99.90
44271;DHT22;29963;44.594;11.368;2024-03-17T08:46:09;16.30;99.90
44271;DHT22;29963;44.594;11.368;2024-03-17T08:48:39;16.40;99.90
44271;DHT22;29963;44.594;11.368;2024-03-17T08:51:06;16.60;99.90
44271;DHT22;29963;44.594;11.368;2024-03-17T08:53:32;16.70;99.90
44271;DHT22;29963;44.594;11.368;2024-03-17T08:55:59;16.80;99.90
44271;DHT22;29963;44.594;11.368;2024-03-17T08:58:25;16.90;99.90
44271;DHT22;29963;44.594;11.368;2024-03-17T09:00:51;17.00;99.90
44271;DHT22;29963;44.594;11.368;2024-03-17T09:03:17;17.10;99.90
44271;DHT22;29963;44.594;11.368;2024-03-17T09:05:45;17.10;99.90
44271;DHT22;29963;44.594;11.368;2024-03-17T09:08:28;17.20;99.90
44271;DHT22;29963;44.594;11.368;2024-03-17T09:10:54;17.20;99.90
44271;DHT22;29963;44.594;11.368;2024-03-17T09:13:22;17.20;99.90
44271;DHT22;29963;44.594;11.368;2024-03-17T09:15:55;17.20;99.90
44271;DHT22;29963;44.594;11.368;2024-03-17T09:18:25;17.20;99.90
44271;DHT22;29963;44.594;11.368;2024-03-17T09:21:10;17.20;99.90
44271;DHT22;29963;44.594;11.368;2024-03-17T09:23:37;17.10;99.90
44271;DHT22;29963;44.594;11.368;2024-03-17T09:26:05;17.10;99.90
44271;DHT22;29963;44.594;11.368;2024-03-17T09:28:31;17.10;99.90
44271;DHT22;29963;44.594;11.368;2024-03-17T09:30:58;17.10;99.90
44271;DHT22;29963;44.594;11.368;2024-03-17T09:33:25;17.20;99.90
44271;DHT22;29963;44.594;11.368;2024-03-17T09:36:05;17.30;99.90
44271;DHT22;29963;44.594;11.368;2024-03-17T09:38:32;17.30;99.90
44271;DHT22;29963;44.594;11.368;2024-03-17T09:40:58;17.40;99.90
44271;DHT22;29963;44.594;11.368;2024-03-17T09:43:26;17.40;99.90
44271;DHT22;29963;44.594;11.368;2024-03-17T09:45:53;17.60;99.90
44271;DHT22;29963;44.594;11.368;2024-03-17T09:48:26;17.60;99.90
44271;DHT22;29963;44.594;11.368;2024-03-17T09:50:55;17.70;99.90
44271;DHT22;29963;44.594;11.368;2024-03-17T09:56:13;17.80;99.90
44271;DHT22;29963;44.594;11.368;2024-03-17T09:58:37;17.90;99.90
44271;DHT22;29963;44.594;11.368;2024-03-17T10:01:03;18.00;99.90
44271;DHT22;29963;44.594;11.368;2024-03-17T10:06:19;18.20;99.90
44271;DHT22;29963;44.594;11.368;2024-03-17T10:08:46;18.30;99.90
44271;DHT22;29963;44.594;11.368;2024-03-17T10:11:14;18.40;99.90
44271;DHT22;29963;44.594;11.368;2024-03-17T10:13:42;18.40;99.90
44271;DHT22;29963;44.594;11.368;2024-03-17T10:16:20;18.40;99.90
44271;DHT22;29963;44.594;11.368;2024-03-17T10:18:46;18.40;99.90
44271;DHT22;29963;44.594;11.368;2024-03-17T10:21:26;18.50;99.90
44271;DHT22;29963;44.594;11.368;2024-03-17T10:24:12;18.60;99.90
44271;DHT22;29963;44.594;11.368;2024-03-17T10:26:48;18.70;99.90
44271;DHT22;29963;44.594;11.368;2024-03-17T10:29:31;18.80;99.90
44271;DHT22;29963;44.594;11.368;2024-03-17T10:31:59;18.90;99.90
44271;DHT22;29963;44.594;11.368;2024-03-17T10:34:28;19.00;99.90
44271;DHT22;29963;44.594;11.368;2024-03-17T10:37:16;19.00;99.90
44271;DHT22;29963;44.594;11.368;2024-03-17T10:39:51;19.10;99.90
44271;DHT22;29963;44.594;11.368;2024-03-17T10:42:25;19.10;99.90
44271;DHT22;29963;44.594;11.368;2024-03-17T10:44:54;19.20;99.90
44271;DHT22;29963;44.594;11.368;2024-03-17T10:47:22;19.30;99.90
44271;DHT22;29963;44.594;11.368;2024-03-17T10:49:50;19.30;99.90
44271;DHT22;29963;44.594;11.368;2024-03-17T10:52:18;19.30;99.90
44271;DHT22;29963;44.594;11.368;2024-03-17T10:54:51;19.40;99.90
44271;DHT22;29963;44.594;11.368;2024-03-17T10:57:41;19.50;99.90
44271;DHT22;29963;44.594;11.368;2024-03-17T11:00:12;19.50;99.90
44271;DHT22;29963;44.594;11.368;2024-03-17T11:02:43;19.50;99.90
44271;DHT22;29963;44.594;11.368;2024-03-17T11:05:27;19.60;99.90
44271;DHT22;29963;44.594;11.368;2024-03-17T11:07:59;19.70;99.90
44271;DHT22;29963;44.594;11.368;2024-03-17T11:10:32;19.70;99.90
44271;DHT22;29963;44.594;11.368;2024-03-17T11:12:59;19.80;99.90
44271;DHT22;29963;44.594;11.368;2024-03-17T11:20:34;20.00;99.90
44271;DHT22;29963;44.594;11.368;2024-03-17T11:23:00;20.00;99.90
44271;DHT22;29963;44.594;11.368;2024-03-17T11:27:58;20.00;99.90
44271;DHT22;29963;44.594;11.368;2024-03-17T11:30:48;20.00;99.90
44271;DHT22;29963;44.594;11.368;2024-03-17T11:49:20;20.20;99.90
44271;DHT22;29963;44.594;11.368;2024-03-17T11:51:47;20.20;99.90
44271;DHT22;29963;44.594;11.368;2024-03-17T11:54:15;20.20;99.90
44271;DHT22;29963;44.594;11.368;2024-03-17T11:56:54;20.30;99.90
44271;DHT22;29963;44.594;11.368;2024-03-17T11:59:21;20.30;99.90
44271;DHT22;29963;44.594;11.368;2024-03-17T12:01:48;20.40;99.90
44271;DHT22;29963;44.594;11.368;2024-03-17T12:04:15;20.40;99.90
44271;DHT22;29963;44.594;11.368;2024-03-17T12:06:46;20.50;99.90
44271;DHT22;29963;44.594;11.368;2024-03-17T12:11:40;20.50;99.90
44271;DHT22;29963;44.594;11.368;2024-03-17T12:14:20;20.60;99.90
44271;DHT22;29963;44.594;11.368;2024-03-17T12:16:51;20.70;99.90
44271;DHT22;29963;44.594;11.368;2024-03-17T12:19:20;20.80;99.90
44271;DHT22;29963;44.594;11.368;2024-03-17T12:21:48;20.80;99.90
44271;DHT22;29963;44.594;11.368;2024-03-17T12:24:25;20.80;99.90
44271;DHT22;29963;44.594;11.368;2024-03-17T12:26:53;20.90;99.90
44271;DHT22;29963;44.594;11.368;2024-03-17T12:29:27;21.00;99.90
44271;DHT22;29963;44.594;11.368;2024-03-17T12:31:54;21.10;99.90
44271;DHT22;29963;44.594;11.368;2024-03-17T12:34:21;21.10;99.90
44271;DHT22;29963;44.594;11.368;2024-03-17T12:36:48;21.10;99.90
44271;DHT22;29963;44.594;11.368;2024-03-17T12:39:19;21.20;99.90
44271;DHT22;29963;44.594;11.368;2024-03-17T12:41:46;21.20;99.90
44271;DHT22;29963;44.594;11.368;2024-03-17T12:44:25;21.20;99.90
44271;DHT22;29963;44.594;11.368;2024-03-17T12:46:58;21.20;99.90
44271;DHT22;29963;44.594;11.368;2024-03-17T12:49:26;21.20;99.90
44271;DHT22;29963;44.594;11.368;2024-03-17T12:51:52;21.30;99.90
44271;DHT22;29963;44.594;11.368;2024-03-17T12:54:26;21.40;99.90
44271;DHT22;29963;44.594;11.368;2024-03-17T12:57:03;21.50;99.90
44271;DHT22;29963;44.594;11.368;2024-03-17T12:59:47;21.50;99.90
44271;DHT22;29963;44.594;11.368;2024-03-17T13:02:31;21.50;99.90
44271;DHT22;29963;44.594;11.368;2024-03-17T13:05:10;21.50;99.90
44271;DHT22;29963;44.594;11.368;2024-03-17T13:07:38;21.50;99.90
44271;DHT22;29963;44.594;11.368;2024-03-17T13:10:04;21.50;99.90
44271;DHT22;29963;44.594;11.368;2024-03-17T13:12:35;21.50;99.90
44271;DHT22;29963;44.594;11.368;2024-03-17T13:15:01;21.50;99.90
44271;DHT22;29963;44.594;11.368;2024-03-17T13:17:27;21.50;99.90
44271;DHT22;29963;44.594;11.368;2024-03-17T13:19:59;21.70;99.90
44271;DHT22;29963;44.594;11.368;2024-03-17T13:22:25;21.80;99.90
44271;DHT22;29963;44.594;11.368;2024-03-17T13:24:51;21.80;99.90
44271;DHT22;29963;44.594;11.368;2024-03-17T13:27:17;21.90;99.90
44271;DHT22;29963;44.594;11.368;2024-03-17T13:29:46;22.00;99.90
44271;DHT22;29963;44.594;11.368;2024-03-17T13:32:12;22.00;99.90
44271;DHT22;29963;44.594;11.368;2024-03-17T13:34:37;22.00;99.90
44271;DHT22;29963;44.594;11.368;2024-03-17T13:37:03;22.00;99.90
44271;DHT22;29963;44.594;11.368;2024-03-17T13:39:33;21.90;99.90
44271;DHT22;29963;44.594;11.368;2024-03-17T13:41:59;21.90;99.90
44271;DHT22;29963;44.594;11.368;2024-03-17T13:44:32;22.00;99.90
44271;DHT22;29963;44.594;11.368;2024-03-17T13:46:59;22.00;99.90
44271;DHT22;29963;44.594;11.368;2024-03-17T13:49:27;22.10;99.90
44271;DHT22;29963;44.594;11.368;2024-03-17T13:51:54;22.10;99.90
44271;DHT22;29963;44.594;11.368;2024-03-17T13:54:19;22.20;99.90
44271;DHT22;29963;44.594;11.368;2024-03-17T13:56:50;22.30;99.90
44271;DHT22;29963;44.594;11.368;2024-03-17T13:59:16;22.30;99.90
44271;DHT22;29963;44.594;11.368;2024-03-17T14:01:43;22.30;99.90
44271;DHT22;29963;44.594;11.368;2024-03-17T14:04:15;22.30;99.90
44271;DHT22;29963;44.594;11.368;2024-03-17T14:06:43;22.20;99.90
44271;DHT22;29963;44.594;11.368;2024-03-17T14:09:09;22.00;99.90
44271;DHT22;29963;44.594;11.368;2024-03-17T14:11:36;21.90;99.90
44271;DHT22;29963;44.594;11.368;2024-03-17T14:14:02;21.80;99.90
44271;DHT22;29963;44.594;11.368;2024-03-17T14:16:29;21.70;99.90
44271;DHT22;29963;44.594;11.368;2024-03-17T14:18:57;21.60;99.90
44271;DHT22;29963;44.594;11.368;2024-03-17T14:21:22;21.50;99.90
44271;DHT22;29963;44.594;11.368;2024-03-17T14:23:48;21.50;99.90
44271;DHT22;29963;44.594;11.368;2024-03-17T14:26:14;21.40;99.90
44271;DHT22;29963;44.594;11.368;2024-03-17T14:28:40;21.30;99.90
44271;DHT22;29963;44.594;11.368;2024-03-17T14:31:06;21.20;99.90
44271;DHT22;29963;44.594;11.368;2024-03-17T14:33:31;21.20;99.90
44271;DHT22;29963;44.594;11.368;2024-03-17T14:35:57;21.10;99.90
44271;DHT22;29963;44.594;11.368;2024-03-17T14:38:23;21.10;99.90
44271;DHT22;29963;44.594;11.368;2024-03-17T14:40:52;21.00;99.90
44271;DHT22;29963;44.594;11.368;2024-03-17T14:43:19;21.00;99.90
44271;DHT22;29963;44.594;11.368;2024-03-17T14:45:45;20.90;99.90
44271;DHT22;29963;44.594;11.368;2024-03-17T14:48:11;20.80;99.90
44271;DHT22;29963;44.594;11.368;2024-03-17T14:50:39;20.80;99.90
44271;DHT22;29963;44.594;11.368;2024-03-17T14:53:05;20.70;99.90
44271;DHT22;29963;44.594;11.368;2024-03-17T14:55:31;20.70;99.90
44271;DHT22;29963;44.594;11.368;2024-03-17T14:57:56;20.70;99.90
44271;DHT22;29963;44.594;11.368;2024-03-17T15:00:22;20.60;99.90
44271;DHT22;29963;44.594;11.368;2024-03-17T15:02:52;20.60;99.90
44271;DHT22;29963;44.594;11.368;2024-03-17T15:05:18;20.50;99.90
44271;DHT22;29963;44.594;11.368;2024-03-17T15:07:51;20.50;99.90
44271;DHT22;29963;44.594;11.368;2024-03-17T15:10:17;20.40;99.90
44271;DHT22;29963;44.594;11.368;2024-03-17T15:12:46;20.50;99.90
44271;DHT22;29963;44.594;11.368;2024-03-17T15:15:12;20.50;99.90
44271;DHT22;29963;44.594;11.368;2024-03-17T15:17:38;20.40;99.90
44271;DHT22;29963;44.594;11.368;2024-03-17T15:20:04;20.40;99.90
44271;DHT22;29963;44.594;11.368;2024-03-17T15:22:48;20.40;99.90
44271;DHT22;29963;44.594;11.368;2024-03-17T15:25:15;20.40;99.90
44271;DHT22;29963;44.594;11.368;2024-03-17T15:27:41;20.40;99.90
44271;DHT22;29963;44.594;11.368;2024-03-17T15:30:14;20.40;99.90
44271;DHT22;29963;44.594;11.368;2024-03-17T15:32:43;20.40;99.90
44271;DHT22;29963;44.594;11.368;2024-03-17T15:35:10;20.30;99.90
44271;DHT22;29963;44.594;11.368;2024-03-17T15:37:35;20.30;99.90
44271;DHT22;29963;44.594;11.368;2024-03-17T15:40:02;20.30;99.90
44271;DHT22;29963;44.594;11.368;2024-03-17T15:42:28;20.30;99.90
44271;DHT22;29963;44.594;11.368;2024-03-17T15:44:53;20.30;99.90
44271;DHT22;29963;44.594;11.368;2024-03-17T15:47:19;20.30;99.90
44271;DHT22;29963;44.594;11.368;2024-03-17T15:49:46;20.30;99.90
44271;DHT22;29963;44.594;11.368;2024-03-17T15:52:11;20.20;99.90
44271;DHT22;29963;44.594;11.368;2024-03-17T15:54:37;20.30;99.90
44271;DHT22;29963;44.594;11.368;2024-03-17T15:57:03;20.30;99.90